createdAt,value
2019-06-01T00:02:17.963Z,6.83
2019-06-01T00:04:49.375Z,7.83
2019-06-01T00:07:20.222Z,8.63
2019-06-01T00:09:49.936Z,7.37
2019-06-01T00:12:19.555Z,7.50
2019-06-01T00:14:50.789Z,8.60
2019-06-01T00:17:20.531Z,8.43
2019-06-01T00:19:50.370Z,8.05
2019-06-01T00:22:20.085Z,7.75
2019-06-01T00:24:50.093Z,8.40
2019-06-01T00:27:19.931Z,8.40
2019-06-01T00:29:49.596Z,7.53
2019-06-01T00:32:19.267Z,8.00
2019-06-01T00:34:49.919Z,7.42
2019-06-01T00:39:48.311Z,7.65
2019-06-01T00:42:18.422Z,7.87
2019-06-01T00:44:48.505Z,7.80
2019-06-01T00:47:18.198Z,8.30
2019-06-01T00:49:48.837Z,8.15
2019-06-01T00:54:47.390Z,7.35
2019-06-01T00:57:17.167Z,7.63
2019-06-01T00:59:47.969Z,8.03
2019-06-01T01:02:17.682Z,7.83
2019-06-01T01:04:52.432Z,8.38
2019-06-01T01:07:22.214Z,7.95
2019-06-01T01:09:52.853Z,8.23
2019-06-01T01:12:22.687Z,7.70
2019-06-01T01:14:53.294Z,8.08
2019-06-01T01:19:52.404Z,8.18
2019-06-01T01:22:22.168Z,7.53
2019-06-01T01:24:52.422Z,7.87
2019-06-01T01:27:23.075Z,8.03
2019-06-01T01:29:53.182Z,8.28
2019-06-01T01:32:22.908Z,8.30
2019-06-01T01:34:53.672Z,8.05
2019-06-01T01:37:23.485Z,8.28
2019-06-01T01:39:54.245Z,8.73
2019-06-01T01:42:23.968Z,7.90
2019-06-01T01:44:54.585Z,7.67
2019-06-01T01:49:54.130Z,7.65
2019-06-01T01:52:23.840Z,8.63
2019-06-01T01:54:54.526Z,8.33
2019-06-01T01:57:24.530Z,8.53
2019-06-01T01:59:55.296Z,8.35
2019-06-01T02:02:26.041Z,8.43
2019-06-01T02:04:57.784Z,9.40
2019-06-01T02:09:57.195Z,8.58
2019-06-01T02:12:26.772Z,7.87
2019-06-01T02:14:56.302Z,9.33
2019-06-01T02:17:25.965Z,8.60
2019-06-01T02:19:56.080Z,8.63
2019-06-01T02:22:26.815Z,8.73
2019-06-01T02:24:57.825Z,8.68
2019-06-01T02:27:27.607Z,9.45
2019-06-01T02:29:57.276Z,8.50
2019-06-01T02:32:27.544Z,8.35
2019-06-01T02:34:58.574Z,8.50
2019-06-01T02:37:28.476Z,8.75
2019-06-01T02:39:58.387Z,7.45
2019-06-01T02:42:28.287Z,8.45
2019-06-01T02:45:02.215Z,8.75
2019-06-01T02:47:32.824Z,8.63
2019-06-01T02:50:04.274Z,9.38
2019-06-01T02:52:33.531Z,8.25
2019-06-01T02:55:04.631Z,8.20
2019-06-01T02:57:34.595Z,8.38
2019-06-01T03:00:06.939Z,8.68
2019-06-01T03:02:36.891Z,7.45
2019-06-01T03:05:07.727Z,8.23
2019-06-01T03:07:39.223Z,9.05
2019-06-01T03:10:10.085Z,7.95
2019-06-01T03:12:46.341Z,7.95
2019-06-01T03:15:17.520Z,8.33
2019-06-01T03:17:48.698Z,7.70
2019-06-01T03:20:18.585Z,7.75
2019-06-01T03:22:51.348Z,8.08
2019-06-01T03:25:20.941Z,7.50
2019-06-01T03:27:53.642Z,7.47
2019-06-01T03:30:45.314Z,7.58
2019-06-01T03:33:14.521Z,7.25
2019-06-01T03:35:44.190Z,7.25
2019-06-01T03:38:13.884Z,7.47
2019-06-01T03:40:43.607Z,7.85
2019-06-01T03:43:13.595Z,7.25
2019-06-01T03:45:43.249Z,6.92
2019-06-01T03:48:13.010Z,7.25
2019-06-01T03:53:12.283Z,6.83
2019-06-01T03:55:41.933Z,6.95
2019-06-01T03:58:11.573Z,6.83
2019-06-01T04:00:42.598Z,6.20
2019-06-01T04:03:13.701Z,6.60
2019-06-01T04:05:43.381Z,6.92
2019-06-01T04:08:12.954Z,6.75
2019-06-01T04:10:42.608Z,6.80
2019-06-01T04:13:12.170Z,6.30
2019-06-01T04:15:41.804Z,6.67
2019-06-01T04:18:13.965Z,6.87
2019-06-01T04:20:42.548Z,5.97
2019-06-01T04:23:12.429Z,6.00
2019-06-01T04:25:43.346Z,6.43
2019-06-01T04:28:13.046Z,6.00
2019-06-01T04:30:42.716Z,6.30
2019-06-01T04:33:13.341Z,6.17
2019-06-01T04:35:42.983Z,5.45
2019-06-01T04:38:13.383Z,5.25
2019-06-01T04:40:44.186Z,6.05
2019-06-01T04:43:14.176Z,5.67
2019-06-01T04:45:43.702Z,5.50
2019-06-01T04:48:14.589Z,5.12
2019-06-01T04:50:44.279Z,5.53
2019-06-01T04:53:15.126Z,5.85
2019-06-01T04:55:44.843Z,5.60
2019-06-01T04:58:15.067Z,4.90
2019-06-01T05:00:44.748Z,5.20
2019-06-01T05:03:15.425Z,5.53
2019-06-01T05:05:45.366Z,4.60
2019-06-01T05:08:15.647Z,4.87
2019-06-01T05:10:45.352Z,4.92
2019-06-01T05:13:15.657Z,4.60
2019-06-01T05:15:46.331Z,5.40
2019-06-01T05:18:19.289Z,4.80
2019-06-01T05:20:47.318Z,4.75
2019-06-01T05:23:17.063Z,4.40
2019-06-01T05:25:46.782Z,5.15
2019-06-01T05:28:17.495Z,4.50
2019-06-01T05:30:47.352Z,4.45
2019-06-01T05:33:30.996Z,4.63
2019-06-01T05:35:48.586Z,4.15
2019-06-01T05:38:18.578Z,4.00
2019-06-01T05:40:48.295Z,4.40
2019-06-01T05:43:19.926Z,4.08
2019-06-01T05:45:49.142Z,4.00
2019-06-01T05:48:24.986Z,3.60
2019-06-01T05:50:50.308Z,3.55
2019-06-01T05:53:20.067Z,3.55
2019-06-01T05:55:49.629Z,3.60
2019-06-01T05:58:19.697Z,3.85
2019-06-01T06:00:49.616Z,4.08
2019-06-01T06:03:22.289Z,3.80
2019-06-01T06:05:51.515Z,3.55
2019-06-01T06:08:22.186Z,2.90
2019-06-01T06:10:51.866Z,3.17
2019-06-01T06:13:21.696Z,2.50
2019-06-01T06:15:51.458Z,2.77
2019-06-01T06:18:21.990Z,2.80
2019-06-01T06:20:51.745Z,2.72
2019-06-01T06:23:22.624Z,2.25
2019-06-01T06:25:52.453Z,2.30
2019-06-01T06:28:23.234Z,2.30
2019-06-01T06:30:53.573Z,2.17
2019-06-01T06:33:24.007Z,2.40
2019-06-01T06:35:53.654Z,2.25
2019-06-01T06:40:53.757Z,2.10
2019-06-01T06:43:30.965Z,2.02
2019-06-01T06:45:54.756Z,2.08
2019-06-01T06:48:25.293Z,2.22
2019-06-01T06:50:54.937Z,2.75
2019-06-01T06:53:33.528Z,2.52
2019-06-01T06:55:56.735Z,1.87
2019-06-01T07:00:56.157Z,2.27
2019-06-01T07:03:27.133Z,1.90
2019-06-01T07:05:56.903Z,2.22
2019-06-01T07:08:26.587Z,1.90
2019-06-01T07:10:57.687Z,1.85
2019-06-01T07:13:28.336Z,2.20
2019-06-01T07:15:58.044Z,2.08
2019-06-01T07:18:27.846Z,1.70
2019-06-01T07:20:57.489Z,2.22
2019-06-01T07:23:28.131Z,2.10
2019-06-01T07:25:58.214Z,1.70
2019-06-01T07:28:28.334Z,1.75
2019-06-01T07:30:57.983Z,2.02
2019-06-01T07:33:28.557Z,1.72
2019-06-01T07:35:59.315Z,2.10
2019-06-01T07:38:29.190Z,1.67
2019-06-01T07:40:58.766Z,1.83
2019-06-01T07:43:28.986Z,1.60
2019-06-01T07:45:58.972Z,1.67
2019-06-01T07:48:29.156Z,1.60
2019-06-01T07:50:58.881Z,1.90
2019-06-01T07:53:29.608Z,1.75
2019-06-01T07:55:59.207Z,1.62
2019-06-01T07:58:28.995Z,1.80
2019-06-01T08:00:58.900Z,2.00
2019-06-01T08:03:32.587Z,2.12
2019-06-01T08:05:59.939Z,1.92
2019-06-01T08:08:29.669Z,1.50
2019-06-01T08:10:59.437Z,2.30
2019-06-01T08:13:33.135Z,2.13
2019-06-01T08:16:00.840Z,2.02
2019-06-01T08:18:30.592Z,2.30
2019-06-01T08:21:00.192Z,1.87
2019-06-01T08:26:00.063Z,2.47
2019-06-01T08:28:30.893Z,2.00
2019-06-01T08:31:00.769Z,2.37
2019-06-01T08:33:33.132Z,1.60
2019-06-01T08:36:01.949Z,1.90
2019-06-01T08:41:01.452Z,2.10
2019-06-01T08:43:31.767Z,1.50
2019-06-01T08:46:01.694Z,2.22
2019-06-01T08:48:31.975Z,1.85
2019-06-01T08:51:01.898Z,1.80
2019-06-01T08:53:32.192Z,1.80
2019-06-01T08:56:01.967Z,1.87
2019-06-01T08:58:32.499Z,2.23
2019-06-01T09:03:32.292Z,1.42
2019-06-01T09:06:02.078Z,1.50
2019-06-01T09:08:33.261Z,1.67
2019-06-01T09:11:03.451Z,1.60
2019-06-01T09:13:41.553Z,4.92
2019-06-01T09:16:12.203Z,3.10
2019-06-01T09:18:42.189Z,1.98
2019-06-01T09:21:12.038Z,1.30
2019-06-01T09:23:42.187Z,1.07
2019-06-01T09:26:12.007Z,0.90
2019-06-01T09:28:41.999Z,1.17
2019-06-01T09:31:12.013Z,1.30
2019-06-01T09:33:43.341Z,2.15
2019-06-01T09:36:13.673Z,1.07
2019-06-01T09:38:43.486Z,2.62
2019-06-01T09:41:13.397Z,1.40
2019-06-01T09:43:43.090Z,1.35
2019-06-01T09:46:12.745Z,0.90
2019-06-01T09:48:42.549Z,1.00
2019-06-01T09:51:12.292Z,2.05
2019-06-01T09:53:42.027Z,1.70
2019-06-01T09:56:11.848Z,1.57
2019-06-01T09:58:41.544Z,1.17
2019-06-01T10:01:11.322Z,1.30
2019-06-01T10:03:40.991Z,1.40
2019-06-01T10:06:13.988Z,1.03
2019-06-01T10:08:42.445Z,1.10
2019-06-01T10:11:12.213Z,1.50
2019-06-01T10:13:42.653Z,1.30
2019-06-01T10:16:12.475Z,0.95
2019-06-01T10:18:43.130Z,1.30
2019-06-01T10:21:13.143Z,1.42
2019-06-01T10:23:49.331Z,1.20
2019-06-01T10:26:15.813Z,1.17
2019-06-01T10:28:45.446Z,1.60
2019-06-01T10:31:15.125Z,0.95
2019-06-01T10:33:44.832Z,0.82
2019-06-01T10:36:20.706Z,1.17
2019-06-01T10:38:46.050Z,1.15
2019-06-01T10:41:15.905Z,1.05
2019-06-01T10:43:45.593Z,1.12
2019-06-01T10:46:15.324Z,1.10
2019-06-01T10:48:45.055Z,1.00
2019-06-01T10:51:14.668Z,1.20
2019-06-01T10:53:44.466Z,1.50
2019-06-01T10:56:14.366Z,1.33
2019-06-01T10:58:59.143Z,1.12
2019-06-01T11:01:15.448Z,1.77
2019-06-01T11:03:45.215Z,1.10
2019-06-01T11:06:14.994Z,1.10
2019-06-01T11:08:44.637Z,1.60
2019-06-01T11:11:14.575Z,0.90
2019-06-01T11:13:44.326Z,0.95
2019-06-01T11:16:14.148Z,0.90
2019-06-01T11:18:48.187Z,0.62
2019-06-01T11:21:20.020Z,1.00
2019-06-01T11:23:49.706Z,0.90
2019-06-01T11:26:19.577Z,1.52
2019-06-01T11:28:49.481Z,0.95
2019-06-01T11:31:19.225Z,0.88
2019-06-01T11:33:49.012Z,0.98
2019-06-01T11:36:18.660Z,1.02
2019-06-01T11:38:48.392Z,1.00
2019-06-01T11:41:18.796Z,0.87
2019-06-01T11:43:48.762Z,1.15
2019-06-01T11:46:18.483Z,1.00
2019-06-01T11:48:48.156Z,1.07
2019-06-01T11:51:17.815Z,0.90
2019-06-01T11:53:47.611Z,0.95
2019-06-01T11:56:17.255Z,1.07
2019-06-01T11:58:47.087Z,1.40
2019-06-01T12:01:19.093Z,1.22
2019-06-01T12:03:48.930Z,1.10
2019-06-01T12:06:18.669Z,1.17
2019-06-01T12:08:48.428Z,1.07
2019-06-01T12:11:18.269Z,1.30
2019-06-01T12:13:48.023Z,1.50
2019-06-01T12:16:17.735Z,1.05
2019-06-01T12:18:47.426Z,1.52
2019-06-01T12:21:17.017Z,1.50
2019-06-01T12:23:47.598Z,1.40
2019-06-01T12:26:17.411Z,1.85
2019-06-01T12:28:47.908Z,2.25
2019-06-01T12:31:17.794Z,1.77
2019-06-01T12:33:48.703Z,1.10
2019-06-01T12:36:18.551Z,1.30
2019-06-01T12:38:51.722Z,1.30
2019-06-01T12:41:22.753Z,1.30
2019-06-01T12:44:09.822Z,1.47
2019-06-01T12:46:39.974Z,1.40
2019-06-01T12:49:11.052Z,1.40
2019-06-01T12:51:40.795Z,1.30
2019-06-01T12:54:10.573Z,1.30
2019-06-01T12:56:40.712Z,1.30
2019-06-01T12:59:11.603Z,1.10
2019-06-01T13:01:41.323Z,1.55
2019-06-01T13:04:11.003Z,1.40
2019-06-01T13:06:42.656Z,1.37
2019-06-01T13:09:12.537Z,1.60
2019-06-01T13:11:43.250Z,1.10
2019-06-01T13:14:12.974Z,1.17
2019-06-01T13:16:47.641Z,1.35
2019-06-01T13:19:13.898Z,1.20
2019-06-01T13:21:43.536Z,1.50
2019-06-01T13:24:13.153Z,2.05
2019-06-01T13:26:43.739Z,2.00
2019-06-01T13:29:13.447Z,2.40
2019-06-01T13:31:44.387Z,1.52
2019-06-01T13:34:14.150Z,1.45
2019-06-01T13:36:44.616Z,1.55
2019-06-01T13:39:14.330Z,1.20
2019-06-01T13:41:45.033Z,1.30
2019-06-01T13:44:14.727Z,1.32
2019-06-01T13:46:45.291Z,1.98
2019-06-01T13:49:17.896Z,4.05
2019-06-01T13:51:50.416Z,1.50
2019-06-01T13:54:20.728Z,1.52
2019-06-01T13:56:50.975Z,1.40
2019-06-01T13:59:20.847Z,1.20
2019-06-01T14:01:51.318Z,1.30
2019-06-01T14:04:21.268Z,1.60
2019-06-01T14:06:51.209Z,1.07
2019-06-01T14:09:22.159Z,1.50
2019-06-01T14:11:53.415Z,1.50
2019-06-01T14:14:23.328Z,1.50
2019-06-01T14:16:53.593Z,1.32
2019-06-01T14:19:23.562Z,2.12
2019-06-01T14:21:54.234Z,1.45
2019-06-01T14:24:23.985Z,1.47
2019-06-01T14:26:54.381Z,1.27
2019-06-01T14:29:24.191Z,1.40
2019-06-01T14:31:55.426Z,1.67
2019-06-01T14:34:25.527Z,2.15
2019-06-01T14:36:56.415Z,1.67
2019-06-01T14:39:26.383Z,1.60
2019-06-01T14:41:56.165Z,1.70
2019-06-01T14:44:25.900Z,1.80
2019-06-01T14:47:03.824Z,1.60
2019-06-01T14:49:26.790Z,1.70
2019-06-01T14:51:57.775Z,1.70
2019-06-01T14:54:27.582Z,1.52
2019-06-01T14:56:59.577Z,1.60
2019-06-01T14:59:29.029Z,1.45
2019-06-01T15:01:58.722Z,1.75
2019-06-01T15:04:28.339Z,1.52
2019-06-01T15:06:58.585Z,1.80
2019-06-01T15:09:28.287Z,1.40
2019-06-01T15:11:58.735Z,1.45
2019-06-01T15:14:28.647Z,2.37
2019-06-01T15:16:58.421Z,1.40
2019-06-01T15:19:28.201Z,1.62
2019-06-01T15:21:58.226Z,1.50
2019-06-01T15:24:29.042Z,1.67
2019-06-01T15:26:58.948Z,2.00
2019-06-01T15:29:28.755Z,2.08
2019-06-01T15:31:58.504Z,1.92
2019-06-01T15:34:28.221Z,1.75
2019-06-01T15:36:58.002Z,2.67
2019-06-01T15:39:27.756Z,2.00
2019-06-01T15:41:57.574Z,1.60
2019-06-01T15:44:27.393Z,1.80
2019-06-01T15:46:57.677Z,2.00
2019-06-01T15:49:27.453Z,1.60
2019-06-01T15:51:57.844Z,2.02
2019-06-01T15:54:28.769Z,2.20
2019-06-01T15:56:58.520Z,2.15
2019-06-01T15:59:28.216Z,2.12
2019-06-01T16:01:59.184Z,1.90
2019-06-01T16:04:30.032Z,1.82
2019-06-01T16:06:59.830Z,1.70
2019-06-01T16:09:42.062Z,1.90
2019-06-01T16:12:02.006Z,1.80
2019-06-01T16:14:31.886Z,2.22
2019-06-01T16:17:03.059Z,2.00
2019-06-01T16:19:33.043Z,1.77
2019-06-01T16:22:02.743Z,2.85
2019-06-01T16:24:32.436Z,2.60
2019-06-01T16:27:02.677Z,1.80
2019-06-01T16:29:32.533Z,2.62
2019-06-01T16:32:02.932Z,2.67
2019-06-01T16:34:33.621Z,2.58
2019-06-01T16:37:03.319Z,2.40
2019-06-01T16:39:33.057Z,1.95
2019-06-01T16:42:03.883Z,2.10
2019-06-01T16:44:35.537Z,1.80
2019-06-01T16:47:06.137Z,1.90
2019-06-01T16:49:36.088Z,3.30
2019-06-01T16:52:07.146Z,3.98
2019-06-01T16:54:38.079Z,2.90
2019-06-01T16:57:07.806Z,3.35
2019-06-01T16:59:37.453Z,3.35
2019-06-01T17:02:07.895Z,2.95
2019-06-01T17:04:37.753Z,2.80
2019-06-01T17:07:08.885Z,2.52
2019-06-01T17:09:38.710Z,4.05
2019-06-01T17:12:08.422Z,2.10
2019-06-01T17:14:38.304Z,4.17
2019-06-01T17:17:08.112Z,2.10
2019-06-01T17:19:37.782Z,2.20
2019-06-01T17:22:07.740Z,2.10
2019-06-01T17:24:37.447Z,2.25
2019-06-01T17:27:08.217Z,2.08
2019-06-01T17:29:38.099Z,3.20
2019-06-01T17:32:19.905Z,2.12
2019-06-01T17:34:39.076Z,2.60
2019-06-01T17:37:09.021Z,2.42
2019-06-01T17:39:38.601Z,2.77
2019-06-01T17:42:08.721Z,2.55
2019-06-01T17:44:38.471Z,1.77
2019-06-01T17:47:08.249Z,2.12
2019-06-01T17:49:38.248Z,2.58
2019-06-01T17:52:07.985Z,2.47
2019-06-01T17:54:37.687Z,2.25
2019-06-01T17:57:07.400Z,2.72
2019-06-01T17:59:37.048Z,2.47
2019-06-01T18:02:07.828Z,2.30
2019-06-01T18:04:37.776Z,2.90
2019-06-01T18:07:08.508Z,3.25
2019-06-01T18:09:38.195Z,2.87
2019-06-01T18:12:08.181Z,3.15
2019-06-01T18:14:37.938Z,3.17
2019-06-01T18:17:08.235Z,4.00
2019-06-01T18:19:38.826Z,2.72
2019-06-01T18:22:10.938Z,3.92
2019-06-01T18:24:40.646Z,4.10
2019-06-01T18:27:10.651Z,4.27
2019-06-01T18:29:48.100Z,4.28
2019-06-01T18:32:11.968Z,3.37
2019-06-01T18:34:41.745Z,2.67
2019-06-01T18:37:11.603Z,2.90
2019-06-01T18:39:41.334Z,3.40
2019-06-01T18:42:12.344Z,5.95
2019-06-01T18:44:42.120Z,4.03
2019-06-01T18:47:11.819Z,4.73
2019-06-01T18:49:41.481Z,3.92
2019-06-01T18:52:11.213Z,3.40
2019-06-01T18:54:40.900Z,2.98
2019-06-01T18:57:17.525Z,4.30
2019-06-01T18:59:41.926Z,6.50
2019-06-01T19:02:12.579Z,7.27
2019-06-01T19:07:15.286Z,4.70
2019-06-01T19:09:46.091Z,4.12
2019-06-01T19:12:15.796Z,4.23
2019-06-01T19:14:45.402Z,3.67
2019-06-01T19:17:16.450Z,3.12
2019-06-01T19:19:46.345Z,3.40
2019-06-01T19:22:16.748Z,3.20
2019-06-01T19:24:46.525Z,3.47
2019-06-01T19:27:17.070Z,3.50
2019-06-01T19:32:20.867Z,4.15
2019-06-01T19:34:49.681Z,3.22
2019-06-01T19:37:21.202Z,3.35
2019-06-01T19:39:52.807Z,3.80
2019-06-01T19:42:22.626Z,3.42
2019-06-01T19:44:52.416Z,3.20
2019-06-01T19:47:22.219Z,3.50
2019-06-01T19:49:51.996Z,3.72
2019-06-01T19:52:21.763Z,3.60
2019-06-01T19:54:51.648Z,3.77
2019-06-01T19:57:23.473Z,3.25
2019-06-01T19:59:52.866Z,3.50
2019-06-01T20:02:32.722Z,4.03
2019-06-01T20:04:56.422Z,3.37
2019-06-01T20:07:26.161Z,4.12
2019-06-01T20:09:55.990Z,3.50
2019-06-01T20:12:25.751Z,3.67
2019-06-01T20:14:55.451Z,3.90
2019-06-01T20:17:26.532Z,4.10
2019-06-01T20:19:56.513Z,3.80
2019-06-01T20:22:26.314Z,5.03
2019-06-01T20:24:58.143Z,5.05
2019-06-01T20:27:27.878Z,4.75
2019-06-01T20:29:57.721Z,4.93
2019-06-01T20:32:27.457Z,6.05
2019-06-01T20:34:57.347Z,5.80
2019-06-01T20:37:27.058Z,4.97
2019-06-01T20:39:56.868Z,4.53
2019-06-01T20:42:32.349Z,4.67
2019-06-01T20:44:57.955Z,4.40
2019-06-01T20:47:27.722Z,4.30
2019-06-01T20:49:57.521Z,4.60
2019-06-01T20:52:28.035Z,4.33
2019-06-01T20:54:57.775Z,3.92
2019-06-01T20:57:27.514Z,3.73
2019-06-01T20:59:57.258Z,4.00
2019-06-01T21:02:27.020Z,3.53
2019-06-01T21:05:00.654Z,4.20
2019-06-01T21:07:30.426Z,3.52
2019-06-01T21:10:01.388Z,4.43
2019-06-01T21:12:44.054Z,3.47
2019-06-01T21:15:02.569Z,3.62
2019-06-01T21:17:34.883Z,3.72
2019-06-01T21:20:07.977Z,3.55
2019-06-01T21:22:37.768Z,3.25
2019-06-01T21:25:08.061Z,3.17
2019-06-01T21:27:37.718Z,2.98
2019-06-01T21:30:07.898Z,2.90
2019-06-01T21:32:37.596Z,3.50
2019-06-01T21:35:07.909Z,3.43
2019-06-01T21:37:37.622Z,3.42
2019-06-01T21:40:08.844Z,3.83
2019-06-01T21:42:41.196Z,3.40
2019-06-01T21:45:11.626Z,4.30
2019-06-01T21:47:42.876Z,3.60
2019-06-01T21:50:16.550Z,3.80
2019-06-01T21:52:47.390Z,3.02
2019-06-01T21:55:18.066Z,3.25
2019-06-01T21:57:49.965Z,3.52
2019-06-01T22:00:32.337Z,3.00
2019-06-01T22:03:04.138Z,3.47
2019-06-01T22:05:33.938Z,3.77
2019-06-01T22:08:04.890Z,3.80
2019-06-01T22:10:34.767Z,3.85
2019-06-01T22:13:18.025Z,4.10
2019-06-01T22:15:36.075Z,3.85
2019-06-01T22:18:05.979Z,3.40
2019-06-01T22:20:35.816Z,3.37
2019-06-01T22:23:06.448Z,3.10
2019-06-01T22:25:36.348Z,2.87
2019-06-01T22:28:06.138Z,3.10
2019-06-01T22:30:35.887Z,3.70
2019-06-01T22:33:05.693Z,3.77
2019-06-01T22:35:35.409Z,3.67
2019-06-01T22:38:05.329Z,3.27
2019-06-01T22:40:35.092Z,3.42
2019-06-01T22:43:04.816Z,3.83
2019-06-01T22:45:36.539Z,3.50
2019-06-01T22:48:06.612Z,3.60
2019-06-01T22:50:36.271Z,4.53
2019-06-01T22:53:08.423Z,3.90
2019-06-01T22:55:38.656Z,4.15
2019-06-01T22:58:08.392Z,4.47
2019-06-01T23:00:38.135Z,4.00
2019-06-01T23:03:08.138Z,3.77
2019-06-01T23:05:38.653Z,3.87
2019-06-01T23:08:08.368Z,3.80
2019-06-01T23:10:37.971Z,4.00
2019-06-01T23:13:07.680Z,4.67
2019-06-01T23:15:37.420Z,4.47
2019-06-01T23:18:07.326Z,4.20
2019-06-01T23:20:37.090Z,3.85
2019-06-01T23:23:06.717Z,4.62
2019-06-01T23:25:36.381Z,4.22
2019-06-01T23:28:06.187Z,4.70
2019-06-01T23:30:35.792Z,4.93
2019-06-01T23:33:05.405Z,4.28
2019-06-01T23:35:35.166Z,4.10
2019-06-01T23:38:04.840Z,3.92
2019-06-01T23:40:34.633Z,4.07
2019-06-01T23:43:04.331Z,4.62
2019-06-01T23:45:34.009Z,4.10
2019-06-01T23:48:03.780Z,4.67
2019-06-01T23:50:34.065Z,4.47
2019-06-01T23:53:13.071Z,4.10
2019-06-01T23:55:35.095Z,4.40
2019-06-01T23:58:04.976Z,4.60
